sensor_id;sensor_type;location;lat;lon;timestamp;P1;durP1;ratioP1;P2;durP2;ratioP2
71610;SDS011;59459;51.172;6.682;2024-01-30T00:02:23;15.20;;;8.17;;
71610;SDS011;59459;51.172;6.682;2024-01-30T00:04:48;18.20;;;8.17;;
71610;SDS011;59459;51.172;6.682;2024-01-30T00:07:13;16.80;;;8.73;;
71610;SDS011;59459;51.172;6.682;2024-01-30T00:09:39;16.53;;;7.57;;
71610;SDS011;59459;51.172;6.682;2024-01-30T00:12:05;15.40;;;7.80;;
71610;SDS011;59459;51.172;6.682;2024-01-30T00:14:31;16.17;;;7.80;;
71610;SDS011;59459;51.172;6.682;2024-01-30T00:16:56;18.40;;;7.53;;
71610;SDS011;59459;51.172;6.682;2024-01-30T00:19:21;18.37;;;7.47;;
71610;SDS011;59459;51.172;6.682;2024-01-30T00:21:47;18.92;;;8.40;;
71610;SDS011;59459;51.172;6.682;2024-01-30T00:24:12;16.30;;;7.93;;
71610;SDS011;59459;51.172;6.682;2024-01-30T00:26:37;18.93;;;7.97;;
71610;SDS011;59459;51.172;6.682;2024-01-30T00:29:03;18.13;;;8.90;;
71610;SDS011;59459;51.172;6.682;2024-01-30T00:31:28;17.40;;;8.63;;
71610;SDS011;59459;51.172;6.682;2024-01-30T00:33:53;20.47;;;8.63;;
71610;SDS011;59459;51.172;6.682;2024-01-30T00:36:18;14.13;;;7.43;;
71610;SDS011;59459;51.172;6.682;2024-01-30T00:38:43;20.70;;;8.20;;
71610;SDS011;59459;51.172;6.682;2024-01-30T00:41:09;16.80;;;7.83;;
71610;SDS011;59459;51.172;6.682;2024-01-30T00:43:34;16.80;;;7.90;;
71610;SDS011;59459;51.172;6.682;2024-01-30T00:45:59;17.70;;;8.37;;
71610;SDS011;59459;51.172;6.682;2024-01-30T00:48:25;17.10;;;7.70;;
71610;SDS011;59459;51.172;6.682;2024-01-30T00:50:50;18.67;;;8.40;;
71610;SDS011;59459;51.172;6.682;2024-01-30T00:53:15;19.80;;;8.70;;
71610;SDS011;59459;51.172;6.682;2024-01-30T00:55:40;16.93;;;8.10;;
71610;SDS011;59459;51.172;6.682;2024-01-30T00:58:06;15.83;;;8.33;;
71610;SDS011;59459;51.172;6.682;2024-01-30T01:00:31;21.70;;;8.40;;
71610;SDS011;59459;51.172;6.682;2024-01-30T01:02:57;15.17;;;8.13;;
71610;SDS011;59459;51.172;6.682;2024-01-30T01:05:23;21.73;;;8.75;;
71610;SDS011;59459;51.172;6.682;2024-01-30T01:07:48;21.57;;;8.83;;
71610;SDS011;59459;51.172;6.682;2024-01-30T01:10:13;15.70;;;8.00;;
71610;SDS011;59459;51.172;6.682;2024-01-30T01:12:39;18.40;;;8.98;;
71610;SDS011;59459;51.172;6.682;2024-01-30T01:15:04;16.90;;;8.13;;
71610;SDS011;59459;51.172;6.682;2024-01-30T01:17:30;16.60;;;8.50;;
71610;SDS011;59459;51.172;6.682;2024-01-30T01:19:55;19.03;;;8.40;;
71610;SDS011;59459;51.172;6.682;2024-01-30T01:22:20;19.67;;;8.20;;
71610;SDS011;59459;51.172;6.682;2024-01-30T01:24:45;15.97;;;7.67;;
71610;SDS011;59459;51.172;6.682;2024-01-30T01:27:11;16.33;;;7.73;;
71610;SDS011;59459;51.172;6.682;2024-01-30T01:29:36;14.80;;;7.75;;
71610;SDS011;59459;51.172;6.682;2024-01-30T01:32:01;19.17;;;8.00;;
71610;SDS011;59459;51.172;6.682;2024-01-30T01:34:26;18.80;;;8.30;;
71610;SDS011;59459;51.172;6.682;2024-01-30T01:36:52;18.47;;;9.00;;
71610;SDS011;59459;51.172;6.682;2024-01-30T01:39:20;19.50;;;9.30;;
71610;SDS011;59459;51.172;6.682;2024-01-30T01:41:45;17.83;;;8.53;;
71610;SDS011;59459;51.172;6.682;2024-01-30T01:44:10;16.83;;;7.87;;
71610;SDS011;59459;51.172;6.682;2024-01-30T01:46:35;17.93;;;9.10;;
71610;SDS011;59459;51.172;6.682;2024-01-30T01:49:02;18.83;;;8.97;;
71610;SDS011;59459;51.172;6.682;2024-01-30T01:51:27;19.87;;;9.00;;
71610;SDS011;59459;51.172;6.682;2024-01-30T01:53:55;19.13;;;9.67;;
71610;SDS011;59459;51.172;6.682;2024-01-30T01:56:22;16.88;;;8.98;;
71610;SDS011;59459;51.172;6.682;2024-01-30T01:58:47;17.50;;;8.45;;
71610;SDS011;59459;51.172;6.682;2024-01-30T02:01:14;19.42;;;8.85;;
71610;SDS011;59459;51.172;6.682;2024-01-30T02:03:40;16.00;;;8.13;;
71610;SDS011;59459;51.172;6.682;2024-01-30T02:06:06;18.83;;;8.70;;
71610;SDS011;59459;51.172;6.682;2024-01-30T02:08:31;16.40;;;8.97;;
71610;SDS011;59459;51.172;6.682;2024-01-30T02:10:56;18.23;;;8.70;;
71610;SDS011;59459;51.172;6.682;2024-01-30T02:13:22;18.80;;;8.33;;
71610;SDS011;59459;51.172;6.682;2024-01-30T02:15:50;16.60;;;8.57;;
71610;SDS011;59459;51.172;6.682;2024-01-30T02:18:15;19.47;;;7.90;;
71610;SDS011;59459;51.172;6.682;2024-01-30T02:20:41;19.90;;;8.93;;
71610;SDS011;59459;51.172;6.682;2024-01-30T02:23:06;17.20;;;8.87;;
71610;SDS011;59459;51.172;6.682;2024-01-30T02:25:42;17.52;;;7.93;;
71610;SDS011;59459;51.172;6.682;2024-01-30T02:28:12;18.80;;;8.40;;
71610;SDS011;59459;51.172;6.682;2024-01-30T02:30:38;16.40;;;7.57;;
71610;SDS011;59459;51.172;6.682;2024-01-30T02:33:03;19.63;;;8.30;;
71610;SDS011;59459;51.172;6.682;2024-01-30T02:35:28;16.37;;;8.40;;
71610;SDS011;59459;51.172;6.682;2024-01-30T02:37:54;17.13;;;8.80;;
71610;SDS011;59459;51.172;6.682;2024-01-30T02:40:19;15.77;;;8.13;;
71610;SDS011;59459;51.172;6.682;2024-01-30T02:42:44;17.27;;;8.07;;
71610;SDS011;59459;51.172;6.682;2024-01-30T02:45:10;18.60;;;8.00;;
71610;SDS011;59459;51.172;6.682;2024-01-30T02:47:35;19.13;;;8.73;;
71610;SDS011;59459;51.172;6.682;2024-01-30T02:50:00;17.13;;;7.77;;
71610;SDS011;59459;51.172;6.682;2024-01-30T02:52:25;15.57;;;7.27;;
71610;SDS011;59459;51.172;6.682;2024-01-30T02:54:51;18.53;;;8.27;;
71610;SDS011;59459;51.172;6.682;2024-01-30T02:57:16;16.60;;;8.67;;
71610;SDS011;59459;51.172;6.682;2024-01-30T02:59:41;17.37;;;8.07;;
71610;SDS011;59459;51.172;6.682;2024-01-30T03:02:06;18.27;;;8.88;;
71610;SDS011;59459;51.172;6.682;2024-01-30T03:04:32;16.20;;;7.40;;
71610;SDS011;59459;51.172;6.682;2024-01-30T03:06:57;18.93;;;7.63;;
71610;SDS011;59459;51.172;6.682;2024-01-30T03:09:23;18.80;;;8.53;;
71610;SDS011;59459;51.172;6.682;2024-01-30T03:11:48;17.87;;;8.37;;
71610;SDS011;59459;51.172;6.682;2024-01-30T03:14:13;16.73;;;8.47;;
71610;SDS011;59459;51.172;6.682;2024-01-30T03:16:38;17.60;;;8.10;;
71610;SDS011;59459;51.172;6.682;2024-01-30T03:19:05;16.10;;;7.50;;
71610;SDS011;59459;51.172;6.682;2024-01-30T03:21:32;18.95;;;8.70;;
71610;SDS011;59459;51.172;6.682;2024-01-30T03:23:57;19.03;;;8.50;;
71610;SDS011;59459;51.172;6.682;2024-01-30T03:26:23;16.87;;;7.80;;
71610;SDS011;59459;51.172;6.682;2024-01-30T03:28:48;16.50;;;6.83;;
71610;SDS011;59459;51.172;6.682;2024-01-30T03:31:14;20.23;;;7.23;;
71610;SDS011;59459;51.172;6.682;2024-01-30T03:33:39;16.40;;;6.65;;
71610;SDS011;59459;51.172;6.682;2024-01-30T03:36:04;17.07;;;7.33;;
71610;SDS011;59459;51.172;6.682;2024-01-30T03:38:30;16.40;;;7.47;;
71610;SDS011;59459;51.172;6.682;2024-01-30T03:40:57;17.70;;;7.25;;
71610;SDS011;59459;51.172;6.682;2024-01-30T03:43:22;16.27;;;7.73;;
71610;SDS011;59459;51.172;6.682;2024-01-30T03:45:47;18.03;;;7.70;;
71610;SDS011;59459;51.172;6.682;2024-01-30T03:48:13;18.07;;;7.20;;
71610;SDS011;59459;51.172;6.682;2024-01-30T03:50:38;16.50;;;7.67;;
71610;SDS011;59459;51.172;6.682;2024-01-30T03:53:03;19.43;;;7.90;;
71610;SDS011;59459;51.172;6.682;2024-01-30T03:55:29;17.05;;;8.18;;
71610;SDS011;59459;51.172;6.682;2024-01-30T03:57:54;17.47;;;7.80;;
71610;SDS011;59459;51.172;6.682;2024-01-30T04:00:19;16.00;;;6.90;;
71610;SDS011;59459;51.172;6.682;2024-01-30T04:02:44;17.23;;;7.70;;
71610;SDS011;59459;51.172;6.682;2024-01-30T04:05:10;16.53;;;7.57;;
71610;SDS011;59459;51.172;6.682;2024-01-30T04:07:35;15.00;;;7.80;;
71610;SDS011;59459;51.172;6.682;2024-01-30T04:10:00;17.10;;;7.77;;
71610;SDS011;59459;51.172;6.682;2024-01-30T04:12:25;16.33;;;6.63;;
71610;SDS011;59459;51.172;6.682;2024-01-30T04:14:51;15.77;;;7.47;;
71610;SDS011;59459;51.172;6.682;2024-01-30T04:17:16;16.93;;;7.77;;
71610;SDS011;59459;51.172;6.682;2024-01-30T04:19:41;16.53;;;8.10;;
71610;SDS011;59459;51.172;6.682;2024-01-30T04:22:06;14.70;;;7.23;;
71610;SDS011;59459;51.172;6.682;2024-01-30T04:24:32;19.03;;;7.87;;
71610;SDS011;59459;51.172;6.682;2024-01-30T04:26:57;16.40;;;6.77;;
71610;SDS011;59459;51.172;6.682;2024-01-30T04:29:22;16.17;;;7.13;;
71610;SDS011;59459;51.172;6.682;2024-01-30T04:31:47;15.43;;;7.93;;
71610;SDS011;59459;51.172;6.682;2024-01-30T04:34:12;17.83;;;7.40;;
71610;SDS011;59459;51.172;6.682;2024-01-30T04:36:38;17.53;;;7.50;;
71610;SDS011;59459;51.172;6.682;2024-01-30T04:39:03;16.07;;;7.87;;
71610;SDS011;59459;51.172;6.682;2024-01-30T04:41:28;15.63;;;6.53;;
71610;SDS011;59459;51.172;6.682;2024-01-30T04:43:56;18.90;;;7.50;;
71610;SDS011;59459;51.172;6.682;2024-01-30T04:46:21;15.73;;;8.03;;
71610;SDS011;59459;51.172;6.682;2024-01-30T04:48:47;18.27;;;8.10;;
71610;SDS011;59459;51.172;6.682;2024-01-30T04:51:12;16.93;;;7.50;;
71610;SDS011;59459;51.172;6.682;2024-01-30T04:53:37;16.63;;;7.77;;
71610;SDS011;59459;51.172;6.682;2024-01-30T04:56:13;14.85;;;6.97;;
71610;SDS011;59459;51.172;6.682;2024-01-30T04:58:41;18.63;;;7.88;;
71610;SDS011;59459;51.172;6.682;2024-01-30T05:01:06;16.13;;;6.73;;
71610;SDS011;59459;51.172;6.682;2024-01-30T05:03:35;17.03;;;8.10;;
71610;SDS011;59459;51.172;6.682;2024-01-30T05:06:00;16.95;;;7.57;;
71610;SDS011;59459;51.172;6.682;2024-01-30T05:08:25;15.20;;;7.03;;
71610;SDS011;59459;51.172;6.682;2024-01-30T05:10:50;16.97;;;8.30;;
71610;SDS011;59459;51.172;6.682;2024-01-30T05:13:16;15.83;;;7.83;;
71610;SDS011;59459;51.172;6.682;2024-01-30T05:15:41;16.93;;;7.60;;
71610;SDS011;59459;51.172;6.682;2024-01-30T05:18:06;16.77;;;8.03;;
71610;SDS011;59459;51.172;6.682;2024-01-30T05:20:31;17.10;;;8.13;;
71610;SDS011;59459;51.172;6.682;2024-01-30T05:22:56;14.63;;;7.43;;
71610;SDS011;59459;51.172;6.682;2024-01-30T05:25:22;17.67;;;8.20;;
71610;SDS011;59459;51.172;6.682;2024-01-30T05:27:48;17.85;;;7.53;;
71610;SDS011;59459;51.172;6.682;2024-01-30T05:30:13;17.87;;;8.63;;
71610;SDS011;59459;51.172;6.682;2024-01-30T05:32:38;17.23;;;7.70;;
71610;SDS011;59459;51.172;6.682;2024-01-30T05:35:04;19.13;;;7.67;;
71610;SDS011;59459;51.172;6.682;2024-01-30T05:37:29;17.17;;;7.40;;
71610;SDS011;59459;51.172;6.682;2024-01-30T05:39:54;15.77;;;7.67;;
71610;SDS011;59459;51.172;6.682;2024-01-30T05:42:20;16.67;;;7.73;;
71610;SDS011;59459;51.172;6.682;2024-01-30T05:44:45;18.27;;;8.10;;
71610;SDS011;59459;51.172;6.682;2024-01-30T05:47:10;14.97;;;7.30;;
71610;SDS011;59459;51.172;6.682;2024-01-30T05:49:35;15.73;;;7.53;;
71610;SDS011;59459;51.172;6.682;2024-01-30T05:52:03;18.00;;;7.73;;
71610;SDS011;59459;51.172;6.682;2024-01-30T05:54:28;19.08;;;8.13;;
71610;SDS011;59459;51.172;6.682;2024-01-30T05:56:54;16.90;;;7.53;;
71610;SDS011;59459;51.172;6.682;2024-01-30T05:59:19;19.00;;;7.17;;
71610;SDS011;59459;51.172;6.682;2024-01-30T06:01:47;15.57;;;7.40;;
71610;SDS011;59459;51.172;6.682;2024-01-30T06:04:13;21.52;;;8.52;;
71610;SDS011;59459;51.172;6.682;2024-01-30T06:06:38;15.67;;;7.57;;
71610;SDS011;59459;51.172;6.682;2024-01-30T06:09:03;15.43;;;6.97;;
71610;SDS011;59459;51.172;6.682;2024-01-30T06:11:28;18.07;;;7.73;;
71610;SDS011;59459;51.172;6.682;2024-01-30T06:13:54;17.13;;;7.53;;
71610;SDS011;59459;51.172;6.682;2024-01-30T06:16:19;15.10;;;7.30;;
71610;SDS011;59459;51.172;6.682;2024-01-30T06:18:46;17.55;;;7.43;;
71610;SDS011;59459;51.172;6.682;2024-01-30T06:21:11;14.40;;;7.50;;
71610;SDS011;59459;51.172;6.682;2024-01-30T06:23:36;15.27;;;7.40;;
71610;SDS011;59459;51.172;6.682;2024-01-30T06:26:01;14.30;;;7.27;;
71610;SDS011;59459;51.172;6.682;2024-01-30T06:28:26;18.73;;;7.73;;
71610;SDS011;59459;51.172;6.682;2024-01-30T06:30:52;16.50;;;7.53;;
71610;SDS011;59459;51.172;6.682;2024-01-30T06:33:17;15.37;;;6.93;;
71610;SDS011;59459;51.172;6.682;2024-01-30T06:35:42;16.80;;;7.67;;
71610;SDS011;59459;51.172;6.682;2024-01-30T06:38:07;20.03;;;7.50;;
71610;SDS011;59459;51.172;6.682;2024-01-30T06:40:33;18.17;;;7.20;;
71610;SDS011;59459;51.172;6.682;2024-01-30T06:42:58;15.90;;;7.43;;
71610;SDS011;59459;51.172;6.682;2024-01-30T06:45:23;17.97;;;7.60;;
71610;SDS011;59459;51.172;6.682;2024-01-30T06:47:48;13.53;;;6.90;;
71610;SDS011;59459;51.172;6.682;2024-01-30T06:50:13;21.23;;;7.63;;
71610;SDS011;59459;51.172;6.682;2024-01-30T06:52:39;19.00;;;7.73;;
71610;SDS011;59459;51.172;6.682;2024-01-30T06:55:04;14.80;;;7.10;;
71610;SDS011;59459;51.172;6.682;2024-01-30T06:57:29;15.60;;;6.63;;
71610;SDS011;59459;51.172;6.682;2024-01-30T06:59:55;16.02;;;7.35;;
71610;SDS011;59459;51.172;6.682;2024-01-30T07:02:20;15.83;;;6.90;;
71610;SDS011;59459;51.172;6.682;2024-01-30T07:04:46;14.60;;;7.10;;
71610;SDS011;59459;51.172;6.682;2024-01-30T07:07:11;18.97;;;7.40;;
71610;SDS011;59459;51.172;6.682;2024-01-30T07:09:38;14.57;;;7.32;;
71610;SDS011;59459;51.172;6.682;2024-01-30T07:12:03;15.90;;;7.40;;
71610;SDS011;59459;51.172;6.682;2024-01-30T07:14:28;19.73;;;7.27;;
71610;SDS011;59459;51.172;6.682;2024-01-30T07:16:54;18.73;;;7.70;;
71610;SDS011;59459;51.172;6.682;2024-01-30T07:19:19;13.57;;;6.67;;
71610;SDS011;59459;51.172;6.682;2024-01-30T07:21:44;16.83;;;6.93;;
71610;SDS011;59459;51.172;6.682;2024-01-30T07:24:09;16.60;;;7.33;;
71610;SDS011;59459;51.172;6.682;2024-01-30T07:26:35;16.37;;;7.37;;
71610;SDS011;59459;51.172;6.682;2024-01-30T07:29:00;19.67;;;7.78;;
71610;SDS011;59459;51.172;6.682;2024-01-30T07:31:26;18.23;;;7.23;;
71610;SDS011;59459;51.172;6.682;2024-01-30T07:33:51;18.30;;;7.30;;
71610;SDS011;59459;51.172;6.682;2024-01-30T07:36:16;19.07;;;7.20;;
71610;SDS011;59459;51.172;6.682;2024-01-30T07:38:41;13.63;;;6.63;;
71610;SDS011;59459;51.172;6.682;2024-01-30T07:41:06;20.30;;;7.67;;
71610;SDS011;59459;51.172;6.682;2024-01-30T07:43:33;14.73;;;7.07;;
71610;SDS011;59459;51.172;6.682;2024-01-30T07:45:58;18.08;;;8.07;;
71610;SDS011;59459;51.172;6.682;2024-01-30T07:48:24;13.57;;;6.43;;
71610;SDS011;59459;51.172;6.682;2024-01-30T07:50:49;15.73;;;7.30;;
71610;SDS011;59459;51.172;6.682;2024-01-30T07:53:15;18.80;;;7.30;;
71610;SDS011;59459;51.172;6.682;2024-01-30T07:55:40;15.87;;;7.43;;
71610;SDS011;59459;51.172;6.682;2024-01-30T07:58:06;18.98;;;7.93;;
71610;SDS011;59459;51.172;6.682;2024-01-30T08:00:31;17.57;;;7.07;;
71610;SDS011;59459;51.172;6.682;2024-01-30T08:02:57;16.80;;;6.97;;
71610;SDS011;59459;51.172;6.682;2024-01-30T08:05:22;20.23;;;7.20;;
71610;SDS011;59459;51.172;6.682;2024-01-30T08:07:48;15.68;;;7.38;;
71610;SDS011;59459;51.172;6.682;2024-01-30T08:10:14;18.20;;;8.23;;
71610;SDS011;59459;51.172;6.682;2024-01-30T08:12:39;17.13;;;7.27;;
71610;SDS011;59459;51.172;6.682;2024-01-30T08:15:04;16.73;;;7.07;;
71610;SDS011;59459;51.172;6.682;2024-01-30T08:17:30;17.27;;;7.17;;
71610;SDS011;59459;51.172;6.682;2024-01-30T08:19:55;16.13;;;7.13;;
71610;SDS011;59459;51.172;6.682;2024-01-30T08:22:20;19.47;;;8.40;;
71610;SDS011;59459;51.172;6.682;2024-01-30T08:24:45;17.83;;;8.00;;
71610;SDS011;59459;51.172;6.682;2024-01-30T08:27:10;17.33;;;7.37;;
71610;SDS011;59459;51.172;6.682;2024-01-30T08:29:37;16.40;;;7.43;;
71610;SDS011;59459;51.172;6.682;2024-01-30T08:32:02;19.00;;;8.40;;
71610;SDS011;59459;51.172;6.682;2024-01-30T08:34:27;15.57;;;7.50;;
71610;SDS011;59459;51.172;6.682;2024-01-30T08:36:52;23.33;;;7.83;;
71610;SDS011;59459;51.172;6.682;2024-01-30T08:39:18;19.73;;;7.97;;
71610;SDS011;59459;51.172;6.682;2024-01-30T08:41:43;15.33;;;7.20;;
71610;SDS011;59459;51.172;6.682;2024-01-30T08:44:08;17.93;;;7.30;;
71610;SDS011;59459;51.172;6.682;2024-01-30T08:46:35;17.70;;;7.45;;
71610;SDS011;59459;51.172;6.682;2024-01-30T08:49:01;15.67;;;7.43;;
71610;SDS011;59459;51.172;6.682;2024-01-30T08:51:26;17.03;;;8.00;;
71610;SDS011;59459;51.172;6.682;2024-01-30T08:53:51;16.63;;;7.50;;
71610;SDS011;59459;51.172;6.682;2024-01-30T08:56:18;17.00;;;7.55;;
71610;SDS011;59459;51.172;6.682;2024-01-30T08:58:43;18.80;;;8.27;;
71610;SDS011;59459;51.172;6.682;2024-01-30T09:01:08;18.37;;;7.80;;
71610;SDS011;59459;51.172;6.682;2024-01-30T09:03:34;15.57;;;7.93;;
71610;SDS011;59459;51.172;6.682;2024-01-30T09:05:59;18.40;;;8.20;;
71610;SDS011;59459;51.172;6.682;2024-01-30T09:08:24;17.53;;;7.83;;
71610;SDS011;59459;51.172;6.682;2024-01-30T09:10:49;21.87;;;8.50;;
71610;SDS011;59459;51.172;6.682;2024-01-30T09:13:15;17.87;;;8.43;;
71610;SDS011;59459;51.172;6.682;2024-01-30T09:15:40;19.33;;;8.30;;
71610;SDS011;59459;51.172;6.682;2024-01-30T09:18:06;15.23;;;7.80;;
71610;SDS011;59459;51.172;6.682;2024-01-30T09:20:31;18.02;;;7.72;;
71610;SDS011;59459;51.172;6.682;2024-01-30T09:22:56;15.13;;;7.83;;
71610;SDS011;59459;51.172;6.682;2024-01-30T09:25:22;16.93;;;7.93;;
71610;SDS011;59459;51.172;6.682;2024-01-30T09:27:47;15.97;;;8.53;;
71610;SDS011;59459;51.172;6.682;2024-01-30T09:30:12;16.70;;;7.97;;
71610;SDS011;59459;51.172;6.682;2024-01-30T09:32:39;15.70;;;7.90;;
71610;SDS011;59459;51.172;6.682;2024-01-30T09:35:04;17.13;;;7.88;;
71610;SDS011;59459;51.172;6.682;2024-01-30T09:37:29;17.27;;;7.17;;
71610;SDS011;59459;51.172;6.682;2024-01-30T09:39:54;18.57;;;8.03;;
71610;SDS011;59459;51.172;6.682;2024-01-30T09:44:48;17.05;;;8.02;;
71610;SDS011;59459;51.172;6.682;2024-01-30T09:47:15;19.27;;;7.30;;
71610;SDS011;59459;51.172;6.682;2024-01-30T09:49:41;16.13;;;6.75;;
71610;SDS011;59459;51.172;6.682;2024-01-30T09:52:07;19.02;;;8.25;;
71610;SDS011;59459;51.172;6.682;2024-01-30T09:54:32;17.20;;;7.27;;
71610;SDS011;59459;51.172;6.682;2024-01-30T09:56:59;16.00;;;8.70;;
71610;SDS011;59459;51.172;6.682;2024-01-30T09:59:24;16.40;;;7.60;;
71610;SDS011;59459;51.172;6.682;2024-01-30T10:01:50;18.80;;;8.60;;
71610;SDS011;59459;51.172;6.682;2024-01-30T10:04:15;15.93;;;7.68;;
71610;SDS011;59459;51.172;6.682;2024-01-30T10:06:40;14.13;;;7.23;;
71610;SDS011;59459;51.172;6.682;2024-01-30T10:09:06;13.80;;;6.95;;
71610;SDS011;59459;51.172;6.682;2024-01-30T10:11:32;20.13;;;9.47;;
71610;SDS011;59459;51.172;6.682;2024-01-30T10:13:57;17.20;;;7.80;;
71610;SDS011;59459;51.172;6.682;2024-01-30T10:16:22;15.33;;;7.83;;
71610;SDS011;59459;51.172;6.682;2024-01-30T10:18:47;15.53;;;7.67;;
71610;SDS011;59459;51.172;6.682;2024-01-30T10:21:12;17.43;;;7.63;;
71610;SDS011;59459;51.172;6.682;2024-01-30T10:23:38;15.63;;;7.03;;
71610;SDS011;59459;51.172;6.682;2024-01-30T10:26:07;16.50;;;7.80;;
71610;SDS011;59459;51.172;6.682;2024-01-30T10:28:32;13.27;;;6.78;;
71610;SDS011;59459;51.172;6.682;2024-01-30T10:30:58;16.50;;;7.47;;
71610;SDS011;59459;51.172;6.682;2024-01-30T10:33:24;20.00;;;8.30;;
71610;SDS011;59459;51.172;6.682;2024-01-30T10:35:49;16.60;;;8.20;;
71610;SDS011;59459;51.172;6.682;2024-01-30T10:38:15;17.52;;;7.97;;
71610;SDS011;59459;51.172;6.682;2024-01-30T10:40:42;18.55;;;7.72;;
71610;SDS011;59459;51.172;6.682;2024-01-30T10:43:08;15.20;;;7.60;;
71610;SDS011;59459;51.172;6.682;2024-01-30T10:45:36;20.38;;;8.40;;
71610;SDS011;59459;51.172;6.682;2024-01-30T10:48:03;17.98;;;8.40;;
71610;SDS011;59459;51.172;6.682;2024-01-30T10:50:30;15.57;;;7.60;;
71610;SDS011;59459;51.172;6.682;2024-01-30T10:52:55;17.93;;;7.97;;
71610;SDS011;59459;51.172;6.682;2024-01-30T10:55:22;19.65;;;8.27;;
71610;SDS011;59459;51.172;6.682;2024-01-30T10:57:48;17.42;;;7.70;;
71610;SDS011;59459;51.172;6.682;2024-01-30T11:00:14;17.57;;;7.60;;
71610;SDS011;59459;51.172;6.682;2024-01-30T11:02:44;15.60;;;7.65;;
71610;SDS011;59459;51.172;6.682;2024-01-30T11:05:10;17.33;;;7.57;;
71610;SDS011;59459;51.172;6.682;2024-01-30T11:07:38;18.67;;;7.80;;
71610;SDS011;59459;51.172;6.682;2024-01-30T11:10:04;15.90;;;7.43;;
71610;SDS011;59459;51.172;6.682;2024-01-30T11:12:30;15.93;;;7.25;;
71610;SDS011;59459;51.172;6.682;2024-01-30T11:15:08;18.00;;;8.00;;
71610;SDS011;59459;51.172;6.682;2024-01-30T11:17:40;18.33;;;8.37;;
71610;SDS011;59459;51.172;6.682;2024-01-30T11:20:09;13.70;;;7.55;;
71610;SDS011;59459;51.172;6.682;2024-01-30T11:22:34;20.05;;;7.93;;
71610;SDS011;59459;51.172;6.682;2024-01-30T11:25:01;16.05;;;7.93;;
71610;SDS011;59459;51.172;6.682;2024-01-30T11:27:28;19.20;;;7.72;;
71610;SDS011;59459;51.172;6.682;2024-01-30T11:29:53;15.60;;;7.93;;
71610;SDS011;59459;51.172;6.682;2024-01-30T11:32:22;13.93;;;7.63;;
71610;SDS011;59459;51.172;6.682;2024-01-30T11:34:48;21.33;;;8.15;;
71610;SDS011;59459;51.172;6.682;2024-01-30T11:37:14;15.57;;;7.23;;
71610;SDS011;59459;51.172;6.682;2024-01-30T11:39:40;17.30;;;7.55;;
71610;SDS011;59459;51.172;6.682;2024-01-30T11:42:07;16.75;;;7.53;;
71610;SDS011;59459;51.172;6.682;2024-01-30T11:44:33;18.02;;;7.97;;
71610;SDS011;59459;51.172;6.682;2024-01-30T11:46:59;17.83;;;8.60;;
71610;SDS011;59459;51.172;6.682;2024-01-30T11:49:24;16.67;;;7.47;;
71610;SDS011;59459;51.172;6.682;2024-01-30T11:51:49;15.40;;;7.77;;
71610;SDS011;59459;51.172;6.682;2024-01-30T11:54:15;15.80;;;7.13;;
71610;SDS011;59459;51.172;6.682;2024-01-30T11:56:41;16.42;;;7.15;;
71610;SDS011;59459;51.172;6.682;2024-01-30T11:59:06;19.00;;;8.53;;
71610;SDS011;59459;51.172;6.682;2024-01-30T12:01:32;17.03;;;7.50;;
71610;SDS011;59459;51.172;6.682;2024-01-30T12:04:00;15.15;;;6.95;;
71610;SDS011;59459;51.172;6.682;2024-01-30T12:06:26;17.02;;;7.93;;
71610;SDS011;59459;51.172;6.682;2024-01-30T12:08:57;15.53;;;5.60;;
71610;SDS011;59459;51.172;6.682;2024-01-30T12:11:23;12.75;;;5.35;;
71610;SDS011;59459;51.172;6.682;2024-01-30T12:13:49;12.73;;;4.83;;
71610;SDS011;59459;51.172;6.682;2024-01-30T12:16:14;13.07;;;4.70;;
71610;SDS011;59459;51.172;6.682;2024-01-30T12:18:40;13.37;;;5.00;;
71610;SDS011;59459;51.172;6.682;2024-01-30T12:21:05;12.90;;;4.80;;
71610;SDS011;59459;51.172;6.682;2024-01-30T12:23:30;14.67;;;4.23;;
71610;SDS011;59459;51.172;6.682;2024-01-30T12:25:55;11.70;;;5.00;;
71610;SDS011;59459;51.172;6.682;2024-01-30T12:28:21;14.00;;;4.75;;
71610;SDS011;59459;51.172;6.682;2024-01-30T12:30:46;13.83;;;5.67;;
71610;SDS011;59459;51.172;6.682;2024-01-30T12:33:17;17.03;;;6.60;;
71610;SDS011;59459;51.172;6.682;2024-01-30T12:35:46;12.68;;;5.25;;
71610;SDS011;59459;51.172;6.682;2024-01-30T12:38:12;13.83;;;5.47;;
71610;SDS011;59459;51.172;6.682;2024-01-30T12:40:38;12.02;;;5.22;;
71610;SDS011;59459;51.172;6.682;2024-01-30T12:43:04;12.50;;;5.40;;
71610;SDS011;59459;51.172;6.682;2024-01-30T12:45:29;15.50;;;5.87;;
71610;SDS011;59459;51.172;6.682;2024-01-30T12:47:55;10.07;;;4.35;;
71610;SDS011;59459;51.172;6.682;2024-01-30T12:50:20;13.93;;;4.93;;
71610;SDS011;59459;51.172;6.682;2024-01-30T12:52:45;11.93;;;4.80;;
71610;SDS011;59459;51.172;6.682;2024-01-30T12:55:10;12.83;;;5.47;;
71610;SDS011;59459;51.172;6.682;2024-01-30T12:57:36;12.33;;;5.47;;
71610;SDS011;59459;51.172;6.682;2024-01-30T13:00:01;12.47;;;5.03;;
71610;SDS011;59459;51.172;6.682;2024-01-30T13:02:26;14.20;;;5.18;;
71610;SDS011;59459;51.172;6.682;2024-01-30T13:04:59;14.93;;;4.73;;
71610;SDS011;59459;51.172;6.682;2024-01-30T13:07:24;11.97;;;4.90;;
71610;SDS011;59459;51.172;6.682;2024-01-30T13:09:50;14.17;;;5.00;;
71610;SDS011;59459;51.172;6.682;2024-01-30T13:12:15;11.03;;;4.70;;
71610;SDS011;59459;51.172;6.682;2024-01-30T13:14:40;12.53;;;5.20;;
71610;SDS011;59459;51.172;6.682;2024-01-30T13:17:05;13.37;;;5.50;;
71610;SDS011;59459;51.172;6.682;2024-01-30T13:19:30;11.37;;;4.93;;
71610;SDS011;59459;51.172;6.682;2024-01-30T13:21:56;13.07;;;5.00;;
71610;SDS011;59459;51.172;6.682;2024-01-30T13:24:21;11.20;;;4.80;;
71610;SDS011;59459;51.172;6.682;2024-01-30T13:26:46;14.30;;;5.03;;
71610;SDS011;59459;51.172;6.682;2024-01-30T13:29:11;13.93;;;5.77;;
71610;SDS011;59459;51.172;6.682;2024-01-30T13:31:37;14.50;;;6.00;;
71610;SDS011;59459;51.172;6.682;2024-01-30T13:34:05;13.10;;;5.17;;
71610;SDS011;59459;51.172;6.682;2024-01-30T13:36:31;15.37;;;5.37;;
71610;SDS011;59459;51.172;6.682;2024-01-30T13:38:57;12.85;;;4.65;;
71610;SDS011;59459;51.172;6.682;2024-01-30T13:41:22;14.53;;;6.13;;
71610;SDS011;59459;51.172;6.682;2024-01-30T13:43:48;12.77;;;5.77;;
71610;SDS011;59459;51.172;6.682;2024-01-30T13:46:13;14.00;;;5.80;;
71610;SDS011;59459;51.172;6.682;2024-01-30T13:48:39;16.43;;;6.80;;
71610;SDS011;59459;51.172;6.682;2024-01-30T13:51:04;15.87;;;6.30;;
71610;SDS011;59459;51.172;6.682;2024-01-30T13:53:29;13.93;;;5.90;;
71610;SDS011;59459;51.172;6.682;2024-01-30T13:55:54;15.77;;;6.23;;
71610;SDS011;59459;51.172;6.682;2024-01-30T13:58:20;12.77;;;5.60;;
71610;SDS011;59459;51.172;6.682;2024-01-30T14:00:45;14.93;;;6.57;;
71610;SDS011;59459;51.172;6.682;2024-01-30T14:03:10;14.83;;;6.03;;
71610;SDS011;59459;51.172;6.682;2024-01-30T14:05:36;14.80;;;5.80;;
71610;SDS011;59459;51.172;6.682;2024-01-30T14:08:01;15.13;;;5.97;;
71610;SDS011;59459;51.172;6.682;2024-01-30T14:10:26;15.33;;;6.20;;
71610;SDS011;59459;51.172;6.682;2024-01-30T14:12:51;18.57;;;6.90;;
71610;SDS011;59459;51.172;6.682;2024-01-30T14:15:17;16.27;;;6.60;;
71610;SDS011;59459;51.172;6.682;2024-01-30T14:17:43;17.80;;;6.70;;
71610;SDS011;59459;51.172;6.682;2024-01-30T14:20:08;15.10;;;6.75;;
71610;SDS011;59459;51.172;6.682;2024-01-30T14:22:35;16.33;;;6.88;;
71610;SDS011;59459;51.172;6.682;2024-01-30T14:25:01;15.77;;;6.43;;
71610;SDS011;59459;51.172;6.682;2024-01-30T14:27:28;14.38;;;5.97;;